Weather at Daufo Airfield

Public forecast

Using degrees Celsius for public forecast. Weather courtesy of forecast.io.

Closest aviation weather report (METAR) to Daufo Airfield

Report is more than 6 hours old.

Closest report is Mozes Kilangin Airport, 84.3 nm (156.0 km) SSW. Retrieved 2022/05/20 06:00 UTC (1 month ago):

WAYY 200600Z 27004KT 9999 VCSH FEW014CB BKN015 29/25 Q1009 RMK CB AT W NOSIG

Closest aviation forecast (TAF) to Daufo Airfield

Closest forecast is Mozes Kilangin Airport, 84.3 nm (156.0 km) SSW. Retrieved UTC (0 seconds ago):